sensor_id;sensor_type;location;lat;lon;timestamp;P1;durP1;ratioP1;P2;durP2;ratioP2
65753;SDS011;52488;47.502;18.940;2023-03-19T00:00:53;16.35;;;7.78;;
65753;SDS011;52488;47.502;18.940;2023-03-19T00:01:56;12.02;;;6.75;;
65753;SDS011;52488;47.502;18.940;2023-03-19T00:03:07;12.05;;;6.82;;
65753;SDS011;52488;47.502;18.940;2023-03-19T00:04:10;11.35;;;7.05;;
65753;SDS011;52488;47.502;18.940;2023-03-19T00:05:12;11.48;;;7.10;;
65753;SDS011;52488;47.502;18.940;2023-03-19T00:06:15;11.23;;;6.72;;
65753;SDS011;52488;47.502;18.940;2023-03-19T00:07:18;11.27;;;7.15;;
65753;SDS011;52488;47.502;18.940;2023-03-19T00:08:21;10.23;;;6.57;;
65753;SDS011;52488;47.502;18.940;2023-03-19T00:09:24;11.23;;;6.82;;
65753;SDS011;52488;47.502;18.940;2023-03-19T00:10:28;14.00;;;7.12;;
65753;SDS011;52488;47.502;18.940;2023-03-19T00:11:31;12.48;;;6.80;;
65753;SDS011;52488;47.502;18.940;2023-03-19T00:12:34;9.80;;;6.37;;
65753;SDS011;52488;47.502;18.940;2023-03-19T00:13:37;12.90;;;6.68;;
65753;SDS011;52488;47.502;18.940;2023-03-19T00:14:40;14.30;;;6.70;;
65753;SDS011;52488;47.502;18.940;2023-03-19T00:15:43;12.68;;;6.75;;
65753;SDS011;52488;47.502;18.940;2023-03-19T00:16:48;13.10;;;7.07;;
65753;SDS011;52488;47.502;18.940;2023-03-19T00:17:51;11.45;;;6.57;;
65753;SDS011;52488;47.502;18.940;2023-03-19T00:18:55;10.77;;;6.47;;
65753;SDS011;52488;47.502;18.940;2023-03-19T00:19:58;11.05;;;6.57;;
65753;SDS011;52488;47.502;18.940;2023-03-19T00:21:01;10.48;;;6.55;;
65753;SDS011;52488;47.502;18.940;2023-03-19T00:22:04;12.98;;;6.78;;
65753;SDS011;52488;47.502;18.940;2023-03-19T00:23:07;12.13;;;6.50;;
65753;SDS011;52488;47.502;18.940;2023-03-19T00:24:10;12.40;;;7.03;;
65753;SDS011;52488;47.502;18.940;2023-03-19T00:25:13;10.70;;;6.35;;
65753;SDS011;52488;47.502;18.940;2023-03-19T00:26:16;11.32;;;6.40;;
65753;SDS011;52488;47.502;18.940;2023-03-19T00:27:19;11.75;;;6.55;;
65753;SDS011;52488;47.502;18.940;2023-03-19T00:28:22;12.63;;;6.28;;
65753;SDS011;52488;47.502;18.940;2023-03-19T00:29:26;10.23;;;6.28;;
65753;SDS011;52488;47.502;18.940;2023-03-19T00:30:29;11.85;;;6.35;;
65753;SDS011;52488;47.502;18.940;2023-03-19T00:31:32;10.52;;;6.15;;
65753;SDS011;52488;47.502;18.940;2023-03-19T00:32:34;10.43;;;6.12;;
65753;SDS011;52488;47.502;18.940;2023-03-19T00:33:38;11.60;;;6.57;;
65753;SDS011;52488;47.502;18.940;2023-03-19T00:34:41;8.32;;;6.00;;
65753;SDS011;52488;47.502;18.940;2023-03-19T00:35:44;10.90;;;6.97;;
65753;SDS011;52488;47.502;18.940;2023-03-19T00:36:47;12.65;;;5.87;;
65753;SDS011;52488;47.502;18.940;2023-03-19T00:37:50;10.43;;;6.37;;
65753;SDS011;52488;47.502;18.940;2023-03-19T00:38:54;8.60;;;5.30;;
65753;SDS011;52488;47.502;18.940;2023-03-19T00:39:58;11.15;;;6.37;;
65753;SDS011;52488;47.502;18.940;2023-03-19T00:41:01;12.93;;;6.95;;
65753;SDS011;52488;47.502;18.940;2023-03-19T00:42:04;11.25;;;6.62;;
65753;SDS011;52488;47.502;18.940;2023-03-19T00:43:08;8.77;;;6.10;;
65753;SDS011;52488;47.502;18.940;2023-03-19T00:44:11;11.50;;;6.80;;
65753;SDS011;52488;47.502;18.940;2023-03-19T00:45:14;9.85;;;6.00;;
65753;SDS011;52488;47.502;18.940;2023-03-19T00:46:17;11.98;;;6.93;;
65753;SDS011;52488;47.502;18.940;2023-03-19T00:47:20;10.52;;;6.50;;
65753;SDS011;52488;47.502;18.940;2023-03-19T00:48:24;12.23;;;6.47;;
65753;SDS011;52488;47.502;18.940;2023-03-19T00:49:26;12.20;;;6.07;;
65753;SDS011;52488;47.502;18.940;2023-03-19T00:50:29;9.85;;;5.85;;
65753;SDS011;52488;47.502;18.940;2023-03-19T00:51:33;12.23;;;7.00;;
65753;SDS011;52488;47.502;18.940;2023-03-19T00:52:35;12.25;;;6.65;;
65753;SDS011;52488;47.502;18.940;2023-03-19T00:53:39;10.70;;;6.07;;
65753;SDS011;52488;47.502;18.940;2023-03-19T00:54:43;11.52;;;6.25;;
65753;SDS011;52488;47.502;18.940;2023-03-19T00:55:46;8.38;;;4.82;;
65753;SDS011;52488;47.502;18.940;2023-03-19T00:56:50;14.68;;;7.32;;
65753;SDS011;52488;47.502;18.940;2023-03-19T00:57:52;11.75;;;6.85;;
65753;SDS011;52488;47.502;18.940;2023-03-19T00:58:55;11.70;;;6.60;;
65753;SDS011;52488;47.502;18.940;2023-03-19T00:59:58;9.35;;;6.12;;
65753;SDS011;52488;47.502;18.940;2023-03-19T01:01:01;9.65;;;6.50;;
65753;SDS011;52488;47.502;18.940;2023-03-19T01:02:04;12.25;;;7.40;;
65753;SDS011;52488;47.502;18.940;2023-03-19T01:03:07;12.05;;;6.93;;
65753;SDS011;52488;47.502;18.940;2023-03-19T01:04:10;9.82;;;6.55;;
65753;SDS011;52488;47.502;18.940;2023-03-19T01:05:13;9.77;;;6.47;;
65753;SDS011;52488;47.502;18.940;2023-03-19T01:06:17;12.48;;;7.22;;
65753;SDS011;52488;47.502;18.940;2023-03-19T01:07:20;11.23;;;6.72;;
65753;SDS011;52488;47.502;18.940;2023-03-19T01:08:23;12.23;;;6.35;;
65753;SDS011;52488;47.502;18.940;2023-03-19T01:09:26;10.55;;;6.87;;
65753;SDS011;52488;47.502;18.940;2023-03-19T01:10:31;11.48;;;6.47;;
65753;SDS011;52488;47.502;18.940;2023-03-19T01:11:36;9.95;;;5.62;;
65753;SDS011;52488;47.502;18.940;2023-03-19T01:12:39;9.90;;;5.82;;
65753;SDS011;52488;47.502;18.940;2023-03-19T01:13:42;9.35;;;6.28;;
65753;SDS011;52488;47.502;18.940;2023-03-19T01:14:45;12.05;;;6.18;;
65753;SDS011;52488;47.502;18.940;2023-03-19T01:15:50;10.82;;;6.45;;
65753;SDS011;52488;47.502;18.940;2023-03-19T01:16:54;11.68;;;6.97;;
65753;SDS011;52488;47.502;18.940;2023-03-19T01:18:03;11.05;;;6.85;;
65753;SDS011;52488;47.502;18.940;2023-03-19T01:19:06;11.63;;;7.35;;
65753;SDS011;52488;47.502;18.940;2023-03-19T01:20:10;12.77;;;6.82;;
65753;SDS011;52488;47.502;18.940;2023-03-19T01:21:20;9.40;;;6.07;;
65753;SDS011;52488;47.502;18.940;2023-03-19T01:22:23;11.80;;;6.57;;
65753;SDS011;52488;47.502;18.940;2023-03-19T01:23:26;12.95;;;6.87;;
65753;SDS011;52488;47.502;18.940;2023-03-19T01:24:29;12.18;;;6.55;;
65753;SDS011;52488;47.502;18.940;2023-03-19T01:25:33;8.48;;;4.75;;
65753;SDS011;52488;47.502;18.940;2023-03-19T01:26:36;12.27;;;6.80;;
65753;SDS011;52488;47.502;18.940;2023-03-19T01:27:39;10.07;;;6.00;;
65753;SDS011;52488;47.502;18.940;2023-03-19T01:28:43;11.23;;;6.57;;
65753;SDS011;52488;47.502;18.940;2023-03-19T01:29:46;8.27;;;5.85;;
65753;SDS011;52488;47.502;18.940;2023-03-19T01:30:48;10.38;;;5.90;;
65753;SDS011;52488;47.502;18.940;2023-03-19T01:31:52;16.15;;;6.40;;
65753;SDS011;52488;47.502;18.940;2023-03-19T01:32:55;11.25;;;6.85;;
65753;SDS011;52488;47.502;18.940;2023-03-19T01:33:58;11.25;;;6.37;;
65753;SDS011;52488;47.502;18.940;2023-03-19T01:35:00;11.20;;;6.37;;
65753;SDS011;52488;47.502;18.940;2023-03-19T01:36:03;9.55;;;6.40;;
65753;SDS011;52488;47.502;18.940;2023-03-19T01:37:07;12.55;;;6.03;;
65753;SDS011;52488;47.502;18.940;2023-03-19T01:38:10;11.95;;;6.15;;
65753;SDS011;52488;47.502;18.940;2023-03-19T01:39:13;9.20;;;5.50;;
65753;SDS011;52488;47.502;18.940;2023-03-19T01:40:16;10.70;;;6.65;;
65753;SDS011;52488;47.502;18.940;2023-03-19T01:41:19;12.10;;;6.18;;
65753;SDS011;52488;47.502;18.940;2023-03-19T01:42:22;9.60;;;5.50;;
65753;SDS011;52488;47.502;18.940;2023-03-19T01:43:29;11.07;;;6.18;;
65753;SDS011;52488;47.502;18.940;2023-03-19T01:44:34;11.63;;;6.45;;
65753;SDS011;52488;47.502;18.940;2023-03-19T01:45:38;10.20;;;6.05;;
65753;SDS011;52488;47.502;18.940;2023-03-19T01:46:43;11.20;;;5.62;;
65753;SDS011;52488;47.502;18.940;2023-03-19T01:47:46;9.52;;;5.95;;
65753;SDS011;52488;47.502;18.940;2023-03-19T01:49:02;9.35;;;5.95;;
65753;SDS011;52488;47.502;18.940;2023-03-19T01:50:20;11.18;;;6.30;;
65753;SDS011;52488;47.502;18.940;2023-03-19T01:51:28;13.98;;;6.78;;
65753;SDS011;52488;47.502;18.940;2023-03-19T01:52:33;10.00;;;5.37;;
65753;SDS011;52488;47.502;18.940;2023-03-19T01:53:36;9.18;;;5.40;;
65753;SDS011;52488;47.502;18.940;2023-03-19T01:54:43;14.13;;;5.70;;
65753;SDS011;52488;47.502;18.940;2023-03-19T01:55:47;9.02;;;5.30;;
65753;SDS011;52488;47.502;18.940;2023-03-19T01:56:51;11.32;;;5.43;;
65753;SDS011;52488;47.502;18.940;2023-03-19T01:57:58;10.18;;;6.00;;
65753;SDS011;52488;47.502;18.940;2023-03-19T01:59:06;10.02;;;5.68;;
65753;SDS011;52488;47.502;18.940;2023-03-19T02:00:14;10.90;;;5.68;;
65753;SDS011;52488;47.502;18.940;2023-03-19T02:01:17;9.98;;;6.12;;
65753;SDS011;52488;47.502;18.940;2023-03-19T02:02:31;10.10;;;5.97;;
65753;SDS011;52488;47.502;18.940;2023-03-19T02:03:36;9.38;;;5.35;;
65753;SDS011;52488;47.502;18.940;2023-03-19T02:04:40;8.23;;;5.07;;
65753;SDS011;52488;47.502;18.940;2023-03-19T02:05:46;7.78;;;5.15;;
65753;SDS011;52488;47.502;18.940;2023-03-19T02:06:53;8.65;;;4.78;;
65753;SDS011;52488;47.502;18.940;2023-03-19T02:07:58;12.43;;;5.20;;
65753;SDS011;52488;47.502;18.940;2023-03-19T02:09:04;7.28;;;4.62;;
65753;SDS011;52488;47.502;18.940;2023-03-19T02:10:09;9.95;;;6.18;;
65753;SDS011;52488;47.502;18.940;2023-03-19T02:11:15;11.43;;;5.90;;
65753;SDS011;52488;47.502;18.940;2023-03-19T02:12:18;7.12;;;4.70;;
65753;SDS011;52488;47.502;18.940;2023-03-19T02:13:21;9.13;;;5.43;;
65753;SDS011;52488;47.502;18.940;2023-03-19T02:14:24;10.50;;;5.35;;
65753;SDS011;52488;47.502;18.940;2023-03-19T02:15:28;8.90;;;5.28;;
65753;SDS011;52488;47.502;18.940;2023-03-19T02:16:31;8.80;;;5.12;;
65753;SDS011;52488;47.502;18.940;2023-03-19T02:17:35;9.40;;;5.07;;
65753;SDS011;52488;47.502;18.940;2023-03-19T02:18:38;8.52;;;5.18;;
65753;SDS011;52488;47.502;18.940;2023-03-19T02:19:48;8.38;;;5.10;;
65753;SDS011;52488;47.502;18.940;2023-03-19T02:21:04;9.35;;;5.85;;
65753;SDS011;52488;47.502;18.940;2023-03-19T02:22:09;8.05;;;5.35;;
65753;SDS011;52488;47.502;18.940;2023-03-19T02:24:28;10.75;;;4.80;;
65753;SDS011;52488;47.502;18.940;2023-03-19T02:26:23;9.73;;;5.50;;
65753;SDS011;52488;47.502;18.940;2023-03-19T02:27:08;11.65;;;5.45;;
65753;SDS011;52488;47.502;18.940;2023-03-19T02:28:12;7.85;;;5.15;;
65753;SDS011;52488;47.502;18.940;2023-03-19T02:29:18;9.38;;;5.78;;
65753;SDS011;52488;47.502;18.940;2023-03-19T02:30:29;8.90;;;5.55;;
65753;SDS011;52488;47.502;18.940;2023-03-19T02:31:35;9.35;;;5.05;;
65753;SDS011;52488;47.502;18.940;2023-03-19T02:32:38;8.45;;;5.35;;
65753;SDS011;52488;47.502;18.940;2023-03-19T02:33:41;13.20;;;5.50;;
65753;SDS011;52488;47.502;18.940;2023-03-19T02:34:44;9.52;;;5.43;;
65753;SDS011;52488;47.502;18.940;2023-03-19T02:35:47;9.00;;;4.40;;
65753;SDS011;52488;47.502;18.940;2023-03-19T02:36:54;10.70;;;5.35;;
65753;SDS011;52488;47.502;18.940;2023-03-19T02:38:01;8.85;;;5.15;;
65753;SDS011;52488;47.502;18.940;2023-03-19T02:39:07;7.03;;;4.62;;
65753;SDS011;52488;47.502;18.940;2023-03-19T02:40:21;11.18;;;5.35;;
65753;SDS011;52488;47.502;18.940;2023-03-19T02:41:28;10.93;;;5.80;;
65753;SDS011;52488;47.502;18.940;2023-03-19T02:42:33;12.00;;;5.60;;
65753;SDS011;52488;47.502;18.940;2023-03-19T02:43:37;11.43;;;5.47;;
65753;SDS011;52488;47.502;18.940;2023-03-19T02:44:40;10.23;;;5.75;;
65753;SDS011;52488;47.502;18.940;2023-03-19T02:45:43;9.55;;;5.15;;
65753;SDS011;52488;47.502;18.940;2023-03-19T02:46:46;8.27;;;5.22;;
65753;SDS011;52488;47.502;18.940;2023-03-19T02:47:50;8.50;;;5.12;;
65753;SDS011;52488;47.502;18.940;2023-03-19T02:48:53;10.45;;;5.32;;
65753;SDS011;52488;47.502;18.940;2023-03-19T02:49:56;8.50;;;5.78;;
65753;SDS011;52488;47.502;18.940;2023-03-19T02:50:59;9.57;;;5.20;;
65753;SDS011;52488;47.502;18.940;2023-03-19T02:52:02;9.07;;;5.60;;
65753;SDS011;52488;47.502;18.940;2023-03-19T02:53:05;8.48;;;5.20;;
65753;SDS011;52488;47.502;18.940;2023-03-19T02:54:08;8.40;;;5.05;;
65753;SDS011;52488;47.502;18.940;2023-03-19T02:55:10;10.65;;;5.07;;
65753;SDS011;52488;47.502;18.940;2023-03-19T02:56:13;9.25;;;5.22;;
65753;SDS011;52488;47.502;18.940;2023-03-19T02:57:16;9.45;;;5.40;;
65753;SDS011;52488;47.502;18.940;2023-03-19T02:58:19;10.77;;;4.82;;
65753;SDS011;52488;47.502;18.940;2023-03-19T02:59:22;11.48;;;5.43;;
65753;SDS011;52488;47.502;18.940;2023-03-19T03:00:25;8.45;;;4.85;;
65753;SDS011;52488;47.502;18.940;2023-03-19T03:01:29;7.97;;;4.82;;
65753;SDS011;52488;47.502;18.940;2023-03-19T03:02:32;9.02;;;4.72;;
65753;SDS011;52488;47.502;18.940;2023-03-19T03:03:35;7.80;;;4.85;;
65753;SDS011;52488;47.502;18.940;2023-03-19T03:04:39;13.13;;;4.65;;
65753;SDS011;52488;47.502;18.940;2023-03-19T03:05:43;8.93;;;4.68;;
65753;SDS011;52488;47.502;18.940;2023-03-19T03:06:46;11.05;;;4.80;;
65753;SDS011;52488;47.502;18.940;2023-03-19T03:07:49;9.95;;;5.40;;
65753;SDS011;52488;47.502;18.940;2023-03-19T03:08:52;8.85;;;5.10;;
65753;SDS011;52488;47.502;18.940;2023-03-19T03:09:54;8.43;;;5.30;;
65753;SDS011;52488;47.502;18.940;2023-03-19T03:10:58;9.23;;;5.20;;
65753;SDS011;52488;47.502;18.940;2023-03-19T03:12:01;8.05;;;4.95;;
65753;SDS011;52488;47.502;18.940;2023-03-19T03:13:04;11.40;;;5.37;;
65753;SDS011;52488;47.502;18.940;2023-03-19T03:14:07;8.27;;;4.68;;
65753;SDS011;52488;47.502;18.940;2023-03-19T03:15:10;8.65;;;5.20;;
65753;SDS011;52488;47.502;18.940;2023-03-19T03:16:13;8.32;;;4.85;;
65753;SDS011;52488;47.502;18.940;2023-03-19T03:17:17;9.60;;;5.32;;
65753;SDS011;52488;47.502;18.940;2023-03-19T03:18:20;9.38;;;4.87;;
65753;SDS011;52488;47.502;18.940;2023-03-19T03:19:23;8.32;;;4.97;;
65753;SDS011;52488;47.502;18.940;2023-03-19T03:20:26;11.15;;;5.30;;
65753;SDS011;52488;47.502;18.940;2023-03-19T03:21:30;11.27;;;5.78;;
65753;SDS011;52488;47.502;18.940;2023-03-19T03:22:37;8.57;;;4.82;;
65753;SDS011;52488;47.502;18.940;2023-03-19T03:23:40;8.70;;;4.97;;
65753;SDS011;52488;47.502;18.940;2023-03-19T03:24:43;7.37;;;4.93;;
65753;SDS011;52488;47.502;18.940;2023-03-19T03:25:49;7.80;;;4.05;;
65753;SDS011;52488;47.502;18.940;2023-03-19T03:26:54;10.25;;;5.05;;
65753;SDS011;52488;47.502;18.940;2023-03-19T03:27:56;6.80;;;4.22;;
65753;SDS011;52488;47.502;18.940;2023-03-19T03:28:59;9.23;;;4.35;;
65753;SDS011;52488;47.502;18.940;2023-03-19T03:30:03;7.43;;;4.72;;
65753;SDS011;52488;47.502;18.940;2023-03-19T03:31:06;9.52;;;5.07;;
65753;SDS011;52488;47.502;18.940;2023-03-19T03:32:10;8.52;;;4.62;;
65753;SDS011;52488;47.502;18.940;2023-03-19T03:33:13;8.48;;;4.95;;
65753;SDS011;52488;47.502;18.940;2023-03-19T03:34:18;9.63;;;4.50;;
65753;SDS011;52488;47.502;18.940;2023-03-19T03:35:21;8.93;;;5.15;;
65753;SDS011;52488;47.502;18.940;2023-03-19T03:36:24;10.77;;;5.40;;
65753;SDS011;52488;47.502;18.940;2023-03-19T03:37:27;8.93;;;5.18;;
65753;SDS011;52488;47.502;18.940;2023-03-19T03:38:30;7.72;;;4.47;;
65753;SDS011;52488;47.502;18.940;2023-03-19T03:39:34;6.70;;;4.40;;
65753;SDS011;52488;47.502;18.940;2023-03-19T03:40:38;9.55;;;4.65;;
65753;SDS011;52488;47.502;18.940;2023-03-19T03:41:41;8.73;;;4.93;;
65753;SDS011;52488;47.502;18.940;2023-03-19T03:42:43;7.85;;;4.55;;
65753;SDS011;52488;47.502;18.940;2023-03-19T03:43:46;10.50;;;4.00;;
65753;SDS011;52488;47.502;18.940;2023-03-19T03:44:50;9.68;;;4.40;;
65753;SDS011;52488;47.502;18.940;2023-03-19T03:45:53;9.43;;;4.70;;
65753;SDS011;52488;47.502;18.940;2023-03-19T03:46:56;11.07;;;4.70;;
65753;SDS011;52488;47.502;18.940;2023-03-19T03:47:59;8.15;;;4.70;;
65753;SDS011;52488;47.502;18.940;2023-03-19T03:49:02;7.68;;;4.65;;
65753;SDS011;52488;47.502;18.940;2023-03-19T03:50:05;6.12;;;3.83;;
65753;SDS011;52488;47.502;18.940;2023-03-19T03:51:08;10.90;;;4.12;;
65753;SDS011;52488;47.502;18.940;2023-03-19T03:52:11;6.70;;;4.10;;
65753;SDS011;52488;47.502;18.940;2023-03-19T03:53:14;10.27;;;5.15;;
65753;SDS011;52488;47.502;18.940;2023-03-19T03:54:18;9.57;;;4.12;;
65753;SDS011;52488;47.502;18.940;2023-03-19T03:55:21;7.87;;;4.12;;
65753;SDS011;52488;47.502;18.940;2023-03-19T03:56:23;7.25;;;4.20;;
65753;SDS011;52488;47.502;18.940;2023-03-19T03:57:27;12.23;;;4.40;;
65753;SDS011;52488;47.502;18.940;2023-03-19T03:58:30;8.27;;;4.50;;
65753;SDS011;52488;47.502;18.940;2023-03-19T03:59:33;7.60;;;4.55;;
65753;SDS011;52488;47.502;18.940;2023-03-19T04:00:37;10.35;;;5.00;;
65753;SDS011;52488;47.502;18.940;2023-03-19T04:01:41;8.02;;;4.62;;
65753;SDS011;52488;47.502;18.940;2023-03-19T04:02:43;8.02;;;4.35;;
65753;SDS011;52488;47.502;18.940;2023-03-19T04:03:47;9.55;;;4.82;;
65753;SDS011;52488;47.502;18.940;2023-03-19T04:04:50;8.25;;;5.03;;
65753;SDS011;52488;47.502;18.940;2023-03-19T04:05:53;9.70;;;5.22;;
65753;SDS011;52488;47.502;18.940;2023-03-19T04:06:56;8.70;;;4.55;;
65753;SDS011;52488;47.502;18.940;2023-03-19T04:07:59;9.20;;;4.85;;
65753;SDS011;52488;47.502;18.940;2023-03-19T04:09:02;7.93;;;4.95;;
65753;SDS011;52488;47.502;18.940;2023-03-19T04:10:06;8.50;;;4.80;;
65753;SDS011;52488;47.502;18.940;2023-03-19T04:11:11;9.98;;;5.07;;
65753;SDS011;52488;47.502;18.940;2023-03-19T04:12:13;6.85;;;4.15;;
65753;SDS011;52488;47.502;18.940;2023-03-19T04:13:17;10.98;;;5.00;;
65753;SDS011;52488;47.502;18.940;2023-03-19T04:14:20;7.30;;;4.90;;
65753;SDS011;52488;47.502;18.940;2023-03-19T04:15:23;8.50;;;5.07;;
65753;SDS011;52488;47.502;18.940;2023-03-19T04:16:26;7.80;;;5.00;;
65753;SDS011;52488;47.502;18.940;2023-03-19T04:17:30;7.50;;;4.75;;
65753;SDS011;52488;47.502;18.940;2023-03-19T04:18:33;7.62;;;4.43;;
65753;SDS011;52488;47.502;18.940;2023-03-19T04:19:36;8.48;;;4.90;;
65753;SDS011;52488;47.502;18.940;2023-03-19T04:20:39;8.07;;;4.72;;
65753;SDS011;52488;47.502;18.940;2023-03-19T04:21:43;7.68;;;4.53;;
65753;SDS011;52488;47.502;18.940;2023-03-19T04:22:46;8.70;;;5.00;;
65753;SDS011;52488;47.502;18.940;2023-03-19T04:23:49;10.13;;;5.07;;
65753;SDS011;52488;47.502;18.940;2023-03-19T04:24:52;6.97;;;4.62;;
65753;SDS011;52488;47.502;18.940;2023-03-19T04:26:03;7.97;;;5.00;;
65753;SDS011;52488;47.502;18.940;2023-03-19T04:27:08;9.98;;;4.55;;
65753;SDS011;52488;47.502;18.940;2023-03-19T04:28:11;8.50;;;4.97;;
65753;SDS011;52488;47.502;18.940;2023-03-19T04:29:14;9.75;;;4.47;;
65753;SDS011;52488;47.502;18.940;2023-03-19T04:30:18;11.75;;;4.78;;
65753;SDS011;52488;47.502;18.940;2023-03-19T04:31:22;9.30;;;5.05;;
65753;SDS011;52488;47.502;18.940;2023-03-19T04:32:25;9.02;;;5.30;;
65753;SDS011;52488;47.502;18.940;2023-03-19T04:33:28;8.18;;;4.80;;
65753;SDS011;52488;47.502;18.940;2023-03-19T04:34:33;8.57;;;5.18;;
65753;SDS011;52488;47.502;18.940;2023-03-19T04:35:36;8.75;;;4.93;;
65753;SDS011;52488;47.502;18.940;2023-03-19T04:36:39;8.85;;;5.15;;
65753;SDS011;52488;47.502;18.940;2023-03-19T04:37:42;6.00;;;3.90;;
65753;SDS011;52488;47.502;18.940;2023-03-19T04:38:50;8.45;;;4.80;;
65753;SDS011;52488;47.502;18.940;2023-03-19T04:39:54;13.38;;;5.32;;
65753;SDS011;52488;47.502;18.940;2023-03-19T04:40:56;6.87;;;4.55;;
65753;SDS011;52488;47.502;18.940;2023-03-19T04:42:00;9.35;;;5.12;;
65753;SDS011;52488;47.502;18.940;2023-03-19T04:43:04;9.05;;;5.40;;
65753;SDS011;52488;47.502;18.940;2023-03-19T04:44:08;8.52;;;4.90;;
65753;SDS011;52488;47.502;18.940;2023-03-19T04:45:11;10.65;;;5.15;;
65753;SDS011;52488;47.502;18.940;2023-03-19T04:46:14;9.93;;;4.90;;
65753;SDS011;52488;47.502;18.940;2023-03-19T04:47:18;11.18;;;4.75;;
65753;SDS011;52488;47.502;18.940;2023-03-19T04:48:21;9.25;;;4.85;;
65753;SDS011;52488;47.502;18.940;2023-03-19T04:49:25;7.95;;;4.97;;
65753;SDS011;52488;47.502;18.940;2023-03-19T04:50:28;9.48;;;5.28;;
65753;SDS011;52488;47.502;18.940;2023-03-19T04:51:35;13.13;;;5.40;;
65753;SDS011;52488;47.502;18.940;2023-03-19T04:52:38;7.22;;;4.50;;
65753;SDS011;52488;47.502;18.940;2023-03-19T04:53:41;9.23;;;4.70;;
65753;SDS011;52488;47.502;18.940;2023-03-19T04:54:44;8.73;;;4.53;;
65753;SDS011;52488;47.502;18.940;2023-03-19T04:55:47;7.70;;;4.82;;
65753;SDS011;52488;47.502;18.940;2023-03-19T04:56:50;8.52;;;5.25;;
65753;SDS011;52488;47.502;18.940;2023-03-19T04:57:54;9.45;;;5.00;;
65753;SDS011;52488;47.502;18.940;2023-03-19T04:58:57;8.82;;;4.68;;
65753;SDS011;52488;47.502;18.940;2023-03-19T05:00:00;7.70;;;4.80;;
65753;SDS011;52488;47.502;18.940;2023-03-19T05:01:04;7.90;;;4.72;;
65753;SDS011;52488;47.502;18.940;2023-03-19T05:02:07;9.85;;;4.80;;
65753;SDS011;52488;47.502;18.940;2023-03-19T05:03:10;10.23;;;4.97;;
65753;SDS011;52488;47.502;18.940;2023-03-19T05:04:14;9.40;;;4.80;;
65753;SDS011;52488;47.502;18.940;2023-03-19T05:05:17;11.48;;;5.07;;
65753;SDS011;52488;47.502;18.940;2023-03-19T05:06:20;7.40;;;5.00;;
65753;SDS011;52488;47.502;18.940;2023-03-19T05:07:23;8.23;;;4.80;;
65753;SDS011;52488;47.502;18.940;2023-03-19T05:08:27;10.13;;;5.45;;
65753;SDS011;52488;47.502;18.940;2023-03-19T05:09:30;7.28;;;4.62;;
65753;SDS011;52488;47.502;18.940;2023-03-19T05:10:34;7.87;;;4.57;;
65753;SDS011;52488;47.502;18.940;2023-03-19T05:11:38;7.60;;;4.78;;
65753;SDS011;52488;47.502;18.940;2023-03-19T05:12:41;11.38;;;4.93;;
65753;SDS011;52488;47.502;18.940;2023-03-19T05:13:44;8.27;;;4.32;;
65753;SDS011;52488;47.502;18.940;2023-03-19T05:14:47;9.05;;;5.07;;
65753;SDS011;52488;47.502;18.940;2023-03-19T05:15:51;8.57;;;5.05;;
65753;SDS011;52488;47.502;18.940;2023-03-19T05:16:57;6.60;;;3.85;;
65753;SDS011;52488;47.502;18.940;2023-03-19T05:18:00;8.60;;;4.95;;
65753;SDS011;52488;47.502;18.940;2023-03-19T05:19:03;8.13;;;3.37;;
65753;SDS011;52488;47.502;18.940;2023-03-19T05:20:07;11.32;;;4.75;;
65753;SDS011;52488;47.502;18.940;2023-03-19T05:21:12;10.38;;;4.55;;
65753;SDS011;52488;47.502;18.940;2023-03-19T05:22:16;6.18;;;4.28;;
65753;SDS011;52488;47.502;18.940;2023-03-19T05:23:19;7.30;;;4.32;;
65753;SDS011;52488;47.502;18.940;2023-03-19T05:24:23;6.45;;;4.20;;
65753;SDS011;52488;47.502;18.940;2023-03-19T05:25:26;8.13;;;4.55;;
65753;SDS011;52488;47.502;18.940;2023-03-19T05:26:30;6.45;;;4.37;;
65753;SDS011;52488;47.502;18.940;2023-03-19T05:27:34;8.75;;;4.78;;
65753;SDS011;52488;47.502;18.940;2023-03-19T05:28:37;7.75;;;4.00;;
65753;SDS011;52488;47.502;18.940;2023-03-19T05:29:41;6.43;;;4.22;;
65753;SDS011;52488;47.502;18.940;2023-03-19T05:30:45;7.87;;;4.50;;
65753;SDS011;52488;47.502;18.940;2023-03-19T05:31:48;7.43;;;4.65;;
65753;SDS011;52488;47.502;18.940;2023-03-19T05:32:51;11.30;;;4.87;;
65753;SDS011;52488;47.502;18.940;2023-03-19T05:33:56;8.27;;;4.82;;
65753;SDS011;52488;47.502;18.940;2023-03-19T05:34:59;9.32;;;4.53;;
65753;SDS011;52488;47.502;18.940;2023-03-19T05:36:02;7.78;;;4.45;;
65753;SDS011;52488;47.502;18.940;2023-03-19T05:37:05;8.40;;;4.30;;
65753;SDS011;52488;47.502;18.940;2023-03-19T05:38:10;8.63;;;4.35;;
65753;SDS011;52488;47.502;18.940;2023-03-19T05:39:13;10.32;;;4.40;;
65753;SDS011;52488;47.502;18.940;2023-03-19T05:40:17;7.00;;;4.18;;
65753;SDS011;52488;47.502;18.940;2023-03-19T05:41:20;7.97;;;4.30;;
65753;SDS011;52488;47.502;18.940;2023-03-19T05:42:23;10.27;;;4.30;;
65753;SDS011;52488;47.502;18.940;2023-03-19T05:43:26;9.15;;;4.75;;
65753;SDS011;52488;47.502;18.940;2023-03-19T05:44:29;6.80;;;4.12;;
65753;SDS011;52488;47.502;18.940;2023-03-19T05:45:33;7.45;;;4.97;;
65753;SDS011;52488;47.502;18.940;2023-03-19T05:46:37;9.35;;;5.45;;
65753;SDS011;52488;47.502;18.940;2023-03-19T05:47:40;7.70;;;4.28;;
65753;SDS011;52488;47.502;18.940;2023-03-19T05:48:44;8.73;;;4.60;;
65753;SDS011;52488;47.502;18.940;2023-03-19T05:49:47;8.73;;;4.85;;
65753;SDS011;52488;47.502;18.940;2023-03-19T05:50:50;12.05;;;4.87;;
65753;SDS011;52488;47.502;18.940;2023-03-19T05:51:54;9.15;;;3.90;;
65753;SDS011;52488;47.502;18.940;2023-03-19T05:52:57;7.60;;;4.68;;
65753;SDS011;52488;47.502;18.940;2023-03-19T05:54:01;6.95;;;4.75;;
65753;SDS011;52488;47.502;18.940;2023-03-19T05:55:04;11.07;;;4.78;;
65753;SDS011;52488;47.502;18.940;2023-03-19T05:56:08;5.85;;;4.15;;
65753;SDS011;52488;47.502;18.940;2023-03-19T05:57:11;8.60;;;4.68;;
65753;SDS011;52488;47.502;18.940;2023-03-19T05:58:14;7.20;;;4.30;;
65753;SDS011;52488;47.502;18.940;2023-03-19T05:59:18;7.18;;;4.45;;
65753;SDS011;52488;47.502;18.940;2023-03-19T06:00:22;6.30;;;4.45;;
65753;SDS011;52488;47.502;18.940;2023-03-19T06:01:25;7.15;;;4.20;;
65753;SDS011;52488;47.502;18.940;2023-03-19T06:02:28;9.93;;;4.60;;
65753;SDS011;52488;47.502;18.940;2023-03-19T06:03:31;10.85;;;4.78;;
65753;SDS011;52488;47.502;18.940;2023-03-19T06:04:34;7.65;;;4.40;;
65753;SDS011;52488;47.502;18.940;2023-03-19T06:05:37;8.95;;;5.22;;
65753;SDS011;52488;47.502;18.940;2023-03-19T06:06:41;9.05;;;4.72;;
65753;SDS011;52488;47.502;18.940;2023-03-19T06:07:44;7.00;;;4.00;;
65753;SDS011;52488;47.502;18.940;2023-03-19T06:08:47;6.00;;;4.00;;
65753;SDS011;52488;47.502;18.940;2023-03-19T06:09:50;8.93;;;4.65;;
65753;SDS011;52488;47.502;18.940;2023-03-19T06:10:54;6.32;;;4.40;;
65753;SDS011;52488;47.502;18.940;2023-03-19T06:11:57;8.02;;;4.20;;
65753;SDS011;52488;47.502;18.940;2023-03-19T06:13:02;8.02;;;4.37;;
65753;SDS011;52488;47.502;18.940;2023-03-19T06:14:07;8.20;;;4.32;;
65753;SDS011;52488;47.502;18.940;2023-03-19T06:15:10;8.88;;;4.40;;
65753;SDS011;52488;47.502;18.940;2023-03-19T06:16:13;8.25;;;4.30;;
65753;SDS011;52488;47.502;18.940;2023-03-19T06:17:17;7.25;;;4.03;;
65753;SDS011;52488;47.502;18.940;2023-03-19T06:18:20;7.28;;;4.30;;